Time;durP1;ratioP1;P1;durP2;ratioP2;P2;SDS_P1;SDS_P2;PMS_P1;PMS_P2;Temp;Humidity;BMP_temperature;BMP_pressure;BME280_temperature;BME280_humidity;BME280_pressure;Samples;Min_cycle;Max_cycle;Signal;HPM_P1;HPM_P2
2023/04/23 00:00:12;;;;;;;49.92;34.05;;;256.80;2252.80;;;;;;5030615;28;20057;-60
2023/04/23 00:02:38;;;;;;;42.25;26.77;;;256.80;2252.80;;;;;;5032894;28;20571;-63
2023/04/23 00:05:05;;;;;;;54.85;36.35;;;256.80;2252.80;;;;;;5032755;28;20025;-63
2023/04/23 00:07:34;;;;;;;21.58;14.45;;;256.80;2252.80;;;;;;5032670;28;20018;-58
2023/04/23 00:10:03;;;;;;;69.32;44.05;;;256.80;2252.80;;;;;;5032221;28;20018;-58
2023/04/23 00:12:29;;;;;;;67.10;38.78;;;256.80;2252.80;;;;;;5032018;28;20022;-58
2023/04/23 00:14:55;;;;;;;68.68;45.83;;;256.80;2252.80;;;;;;5032569;28;20112;-60
2023/04/23 00:17:21;;;;;;;25.45;14.57;;;256.70;2252.80;;;;;;5032095;28;20056;-57
2023/04/23 00:19:47;;;;;;;49.53;30.77;;;256.70;2252.80;;;;;;5032188;28;20477;-62
2023/04/23 00:22:13;;;;;;;110.65;64.28;;;256.60;2252.80;;;;;;5032118;28;20471;-61
2023/04/23 00:24:41;;;;;;;68.95;40.63;;;256.50;2252.80;;;;;;5032007;28;20387;-59
2023/04/23 00:27:06;;;;;;;27.60;17.02;;;256.70;2252.80;;;;;;5032439;28;20026;-60
2023/04/23 00:29:32;;;;;;;37.08;22.98;;;256.80;2252.80;;;;;;5031877;28;20033;-58
2023/04/23 00:31:58;;;;;;;117.45;72.53;;;256.70;2252.80;;;;;;5031959;28;20379;-59
2023/04/23 00:34:24;;;;;;;50.67;35.20;;;256.60;2252.80;;;;;;5031874;28;20060;-63
2023/04/23 00:36:50;;;;;;;31.10;22.02;;;256.50;2252.80;;;;;;5031848;28;20045;-59
2023/04/23 00:39:15;;;;;;;23.65;16.95;;;256.60;2252.80;;;;;;5031843;28;20491;-58
2023/04/23 00:41:42;;;;;;;17.80;14.15;;;256.60;2252.80;;;;;;5032004;28;20117;-59
2023/04/23 00:44:08;;;;;;;19.92;13.25;;;256.60;2252.80;;;;;;5031596;28;20372;-59
2023/04/23 00:46:35;;;;;;;20.45;13.85;;;256.60;2252.80;;;;;;5031940;28;20028;-62
2023/04/23 00:49:01;;;;;;;16.85;12.25;;;256.50;2252.80;;;;;;5031608;28;20029;-63
2023/04/23 00:51:28;;;;;;;13.35;9.45;;;256.50;2252.80;;;;;;5031851;28;20056;-59
2023/04/23 00:53:54;;;;;;;71.50;42.95;;;256.60;2252.80;;;;;;5031885;28;20022;-60
2023/04/23 00:56:20;;;;;;;51.15;30.75;;;256.60;2252.80;;;;;;5031553;28;20095;-60
2023/04/23 00:58:46;;;;;;;103.55;57.92;;;256.50;2252.80;;;;;;5031286;28;20490;-60
2023/04/23 01:01:12;;;;;;;44.53;26.05;;;256.50;2252.80;;;;;;5031328;28;20045;-63
2023/04/23 01:03:41;;;;;;;57.90;35.33;;;256.50;2252.80;;;;;;5031130;28;20037;-63
2023/04/23 01:06:07;;;;;;;91.43;44.40;;;256.50;2252.80;;;;;;5031629;28;20025;-59
2023/04/23 01:08:34;;;;;;;202.45;90.22;;;256.60;2252.80;;;;;;5031282;28;20030;-60
2023/04/23 01:11:01;;;;;;;99.07;43.58;;;256.50;2252.80;;;;;;5031399;28;20033;-60
2023/04/23 01:13:28;;;;;;;44.75;25.73;;;256.50;2252.80;;;;;;5031089;28;20033;-59
2023/04/23 01:15:55;;;;;;;12.77;9.52;;;256.60;2252.80;;;;;;5031251;28;20490;-63
2023/04/23 01:18:22;;;;;;;9.80;7.93;;;256.50;2252.80;;;;;;5031211;28;20037;-60
2023/04/23 01:20:48;;;;;;;19.52;12.68;;;256.60;2252.80;;;;;;5031139;28;20025;-61
2023/04/23 01:23:15;;;;;;;12.32;7.93;;;256.50;2252.80;;;;;;5031809;28;20530;-59
2023/04/23 01:25:41;;;;;;;12.50;8.52;;;256.50;2252.80;;;;;;5031855;28;20112;-61
2023/04/23 01:28:08;;;;;;;11.80;8.80;;;256.50;2252.80;;;;;;5031462;28;20029;-59
2023/04/23 01:30:37;;;;;;;13.20;8.50;;;256.50;2252.80;;;;;;5031833;28;20399;-59
2023/04/23 01:33:04;;;;;;;11.30;8.32;;;256.50;2252.80;;;;;;5031377;28;20491;-59
2023/04/23 01:35:30;;;;;;;12.32;7.85;;;256.50;2252.80;;;;;;5030681;28;20037;-59
2023/04/23 01:37:58;;;;;;;19.08;13.55;;;256.50;2252.80;;;;;;5031052;28;20109;-60
2023/04/23 01:40:23;;;;;;;10.45;7.88;;;256.60;2252.80;;;;;;5031094;28;20033;-61
2023/04/23 01:42:50;;;;;;;15.52;8.95;;;256.50;2252.80;;;;;;5030548;28;20026;-59
2023/04/23 01:45:18;;;;;;;12.55;7.82;;;256.50;2252.80;;;;;;5030781;28;20030;-59
2023/04/23 01:47:45;;;;;;;10.13;7.70;;;256.50;2252.80;;;;;;5013014;28;20379;-61
2023/04/23 01:50:11;;;;;;;13.10;8.93;;;256.60;2252.80;;;;;;5030228;28;20017;-59
2023/04/23 01:52:37;;;;;;;12.70;8.10;;;256.50;2252.80;;;;;;5030821;28;20040;-61
2023/04/23 01:55:03;;;;;;;9.50;7.80;;;256.50;2252.80;;;;;;5030791;28;20030;-59
2023/04/23 01:57:29;;;;;;;10.18;7.90;;;256.50;2252.80;;;;;;5030424;28;20033;-62
2023/04/23 02:00:07;;;;;;;15.13;9.02;;;256.50;2252.80;;;;;;5030161;28;20136;-58
2023/04/23 02:02:34;;;;;;;14.23;8.10;;;256.60;2252.80;;;;;;5030307;28;20113;-63
2023/04/23 02:05:04;;;;;;;10.88;9.40;;;256.50;2252.80;;;;;;5029915;28;20026;-58
2023/04/23 02:07:31;;;;;;;13.50;9.10;;;256.50;2252.80;;;;;;5030540;28;20053;-58
2023/04/23 02:09:57;;;;;;;13.88;10.75;;;256.40;2252.80;;;;;;5030440;28;20475;-59
2023/04/23 02:12:23;;;;;;;12.10;8.75;;;256.50;2252.80;;;;;;5030595;28;20026;-64
2023/04/23 02:14:49;;;;;;;12.23;8.48;;;256.40;2252.80;;;;;;5029811;28;20029;-62
2023/04/23 02:17:15;;;;;;;9.73;7.75;;;256.50;2252.80;;;;;;5030275;28;20014;-59
2023/04/23 02:19:41;;;;;;;12.27;8.32;;;256.60;2252.80;;;;;;5029873;28;20055;-63
2023/04/23 02:22:08;;;;;;;19.13;8.88;;;256.70;2252.80;;;;;;5029797;28;20419;-58
2023/04/23 02:24:33;;;;;;;10.80;8.18;;;256.70;2252.80;;;;;;5030036;28;20023;-62
2023/04/23 02:27:00;;;;;;;95.05;80.03;;;256.80;2252.80;;;;;;5029649;28;20037;-58
2023/04/23 02:29:25;;;;;;;69.47;60.00;;;256.80;2252.80;;;;;;5011694;28;20442;-62
2023/04/23 02:31:51;;;;;;;41.67;35.75;;;256.80;2252.80;;;;;;5029989;28;20030;-59
2023/04/23 02:34:17;;;;;;;22.17;19.23;;;256.90;2252.80;;;;;;5029875;28;20379;-59
2023/04/23 02:36:43;;;;;;;15.98;9.48;;;256.90;2252.80;;;;;;5029900;28;20029;-59
2023/04/23 02:39:08;;;;;;;10.25;8.68;;;256.80;2252.80;;;;;;5029595;28;20041;-59
2023/04/23 02:41:34;;;;;;;12.13;9.20;;;256.80;2252.80;;;;;;5030258;28;20109;-62
2023/04/23 02:44:00;;;;;;;11.82;7.55;;;256.80;2252.80;;;;;;5029284;28;20022;-62
2023/04/23 02:46:25;;;;;;;12.15;7.82;;;256.80;2252.80;;;;;;5011470;28;20660;-63
2023/04/23 02:48:51;;;;;;;17.65;8.75;;;256.90;2252.80;;;;;;5029286;28;20026;-61
2023/04/23 02:51:17;;;;;;;17.90;8.35;;;256.90;2252.80;;;;;;5030393;28;20024;-58
2023/04/23 02:53:43;;;;;;;14.68;8.82;;;256.80;2252.80;;;;;;5029576;28;20025;-60
2023/04/23 02:56:08;;;;;;;11.55;9.32;;;256.80;2252.80;;;;;;5029617;28;20029;-59
2023/04/23 02:58:34;;;;;;;16.85;10.43;;;256.80;2252.80;;;;;;5028631;28;20463;-59
2023/04/23 03:01:01;;;;;;;15.57;9.50;;;256.60;2252.80;;;;;;5029250;28;20056;-59
2023/04/23 03:03:30;;;;;;;15.80;14.18;;;256.60;2252.80;;;;;;5029224;28;20026;-61
2023/04/23 03:05:56;;;;;;;12.57;10.18;;;256.60;2252.80;;;;;;5029762;28;20044;-62
2023/04/23 03:08:22;;;;;;;19.05;12.48;;;256.50;2252.80;;;;;;5028811;28;20499;-61
2023/04/23 03:10:48;;;;;;;20.55;14.57;;;256.50;2252.80;;;;;;5029288;28;20040;-59
2023/04/23 03:13:14;;;;;;;12.52;8.95;;;256.60;2252.80;;;;;;5029241;28;20032;-59
2023/04/23 03:15:40;;;;;;;13.15;9.30;;;256.60;2252.80;;;;;;5029257;28;20040;-59
2023/04/23 03:18:07;;;;;;;13.20;7.88;;;256.60;2252.80;;;;;;5029148;28;20067;-61
2023/04/23 03:20:33;;;;;;;11.13;8.75;;;256.70;2252.80;;;;;;5028939;28;20030;-63
2023/04/23 03:22:59;;;;;;;20.92;13.63;;;256.60;2252.80;;;;;;5029034;28;20017;-59
2023/04/23 03:25:25;;;;;;;16.17;11.32;;;256.60;2252.80;;;;;;5029312;28;20022;-59
2023/04/23 03:27:51;;;;;;;24.23;14.85;;;256.60;2252.80;;;;;;5028598;28;20028;-58
2023/04/23 03:30:17;;;;;;;19.42;10.63;;;256.60;2252.80;;;;;;5029357;28;20021;-58
2023/04/23 03:32:43;;;;;;;13.27;8.60;;;256.50;2252.80;;;;;;5029071;28;20360;-58
2023/04/23 03:35:09;;;;;;;13.40;8.68;;;256.50;2252.80;;;;;;5031291;28;20025;-59
2023/04/23 03:37:34;;;;;;;12.95;7.97;;;256.60;2252.80;;;;;;5033376;28;20018;-61
2023/04/23 03:40:06;;;;;;;16.60;11.75;;;256.70;2252.80;;;;;;5033071;28;20427;-59
2023/04/23 03:42:32;;;;;;;41.25;24.45;;;256.70;2252.80;;;;;;5032781;28;20036;-62
2023/04/23 03:44:59;;;;;;;20.73;15.57;;;256.50;2252.80;;;;;;5032832;28;20360;-59
2023/04/23 03:47:25;;;;;;;23.83;18.70;;;256.40;2252.80;;;;;;5033189;28;20045;-63
2023/04/23 03:49:51;;;;;;;29.58;20.55;;;256.40;2252.80;;;;;;5032557;28;20459;-58
2023/04/23 03:52:17;;;;;;;42.47;24.05;;;256.20;2252.80;;;;;;5032735;28;20112;-60
2023/04/23 03:54:43;;;;;;;23.88;16.02;;;256.10;2252.80;;;;;;5032967;28;20022;-58
2023/04/23 03:57:11;;;;;;;35.45;19.50;;;256.10;2252.80;;;;;;5032651;28;20494;-59
2023/04/23 03:59:36;;;;;;;19.95;13.63;;;256.10;2252.80;;;;;;5032634;28;20530;-57
2023/04/23 04:02:05;;;;;;;12.48;8.90;;;256.20;2252.80;;;;;;5032392;28;20055;-58
2023/04/23 04:04:31;;;;;;;42.47;25.52;;;256.20;2252.80;;;;;;5032574;28;20030;-61
2023/04/23 04:07:01;;;;;;;20.92;14.25;;;256.30;2252.80;;;;;;5032807;28;20055;-59
2023/04/23 04:09:27;;;;;;;17.05;8.98;;;256.40;2252.80;;;;;;5019605;28;20079;-59
2023/04/23 04:11:53;;;;;;;13.02;9.80;;;256.50;2252.80;;;;;;5032697;28;20024;-62
2023/04/23 04:14:20;;;;;;;14.52;11.00;;;256.60;2252.80;;;;;;5031911;28;20030;-59
2023/04/23 04:16:46;;;;;;;14.57;11.60;;;256.60;2252.80;;;;;;5032654;28;20013;-58
2023/04/23 04:19:11;;;;;;;12.95;10.88;;;256.60;2252.80;;;;;;5032239;28;20448;-58
2023/04/23 04:21:37;;;;;;;10.85;8.57;;;256.70;2252.80;;;;;;5032426;28;20076;-59
2023/04/23 04:24:06;;;;;;;12.57;8.80;;;256.70;2252.80;;;;;;5032066;28;20030;-58
2023/04/23 04:26:33;;;;;;;12.05;8.23;;;256.80;2252.80;;;;;;5032247;28;20025;-61
2023/04/23 04:29:00;;;;;;;11.00;8.25;;;281.60;2278.40;;;;;;5031496;28;20025;-59
2023/04/23 04:31:27;;;;;;;10.68;7.70;;;281.70;2278.40;;;;;;5032591;28;20105;-59
2023/04/23 04:33:54;;;;;;;12.07;8.85;;;281.90;2278.40;;;;;;5031957;28;20038;-59
2023/04/23 04:36:20;;;;;;;13.80;8.85;;;282.00;2278.40;;;;;;5031792;28;20025;-59
2023/04/23 04:38:46;;;;;;;14.88;9.25;;;282.00;2278.40;;;;;;5031962;28;20237;-58
2023/04/23 04:41:12;;;;;;;17.63;11.10;;;307.20;2304.00;;;;;;5014261;28;20026;-62
2023/04/23 04:43:39;;;;;;;13.73;10.63;;;332.90;2329.60;;;;;;5031492;28;20026;-62
2023/04/23 04:46:05;;;;;;;12.20;8.63;;;332.90;2329.60;;;;;;5031650;28;20030;-63
2023/04/23 04:48:30;;;;;;;11.02;8.15;;;359.20;2329.60;;;;;;5013474;28;20395;-59
2023/04/23 04:50:56;;;;;;;9.80;7.55;;;409.70;2150.40;;;;;;5031848;28;20448;-61
2023/04/23 04:53:22;;;;;;;12.75;7.63;;;410.20;2048.00;;;;;;5031762;28;20108;-59
2023/04/23 04:55:48;;;;;;;12.20;7.70;;;460.90;1945.60;;;;;;5031925;28;20423;-60
2023/04/23 04:58:14;;;;;;;20.23;8.02;;;486.70;1792.00;;;;;;5031555;28;20038;-59
2023/04/23 05:00:40;;;;;;;27.02;17.95;;;487.30;1715.20;;;;;;5031474;28;20518;-59
2023/04/23 05:03:06;;;;;;;43.30;23.42;;;537.90;1689.60;;;;;;5031343;28;20022;-60
2023/04/23 05:05:33;;;;;;;22.23;18.52;;;538.50;1638.40;;;;;;5031307;28;20434;-59
2023/04/23 05:08:00;;;;;;;20.90;15.85;;;588.90;1587.20;;;;;;5031343;28;20044;-61
2023/04/23 05:10:27;;;;;;;14.82;9.25;;;614.40;1510.40;;;;;;5031417;28;20076;-63
2023/04/23 05:12:55;;;;;;;11.40;9.00;;;589.50;1484.80;;;;;;5030875;28;20453;-64
2023/04/23 05:15:21;;;;;;;14.57;11.02;;;589.70;1484.80;;;;;;5031253;28;20137;-63
2023/04/23 05:17:49;;;;;;;13.77;9.23;;;614.60;1459.20;;;;;;5031254;28;20467;-60
2023/04/23 05:20:14;;;;;;;27.35;20.83;;;614.90;1408.00;;;;;;5031187;28;20021;-62
2023/04/23 05:22:41;;;;;;;33.15;22.33;;;640.40;1382.40;;;;;;5031268;28;20426;-60
2023/04/23 05:25:08;;;;;;;30.35;20.95;;;640.00;1433.60;;;;;;5031373;28;20047;-61
2023/04/23 05:27:34;;;;;;;21.55;18.73;;;640.70;1356.80;;;;;;5031181;28;20052;-60
2023/04/23 05:30:04;;;;;;;20.55;18.15;;;691.50;1305.60;;;;;;5030643;28;20025;-63
2023/04/23 05:32:31;;;;;;;18.17;15.63;;;717.00;1254.40;;;;;;5030610;28;20049;-66
2023/04/23 05:34:58;;;;;;;13.73;10.13;;;743.10;1203.20;;;;;;5030922;28;20037;-61
2023/04/23 05:37:24;;;;;;;10.13;9.13;;;743.10;1203.20;;;;;;5030843;28;20541;-65
2023/04/23 05:39:50;;;;;;;11.25;9.90;;;768.10;1177.60;;;;;;5030522;28;20072;-61
2023/04/23 05:42:16;;;;;;;10.90;9.30;;;768.40;1177.60;;;;;;5030921;28;20099;-61
2023/04/23 05:44:41;;;;;;;15.40;12.98;;;768.60;1152.00;;;;;;5030705;28;20037;-65
2023/04/23 05:47:09;;;;;;;12.68;11.40;;;768.90;1126.40;;;;;;5030795;28;20072;-60
2023/04/23 05:49:35;;;;;;;12.18;10.85;;;793.80;1126.40;;;;;;5030790;28;20387;-60
2023/04/23 05:52:02;;;;;;;11.68;9.95;;;794.50;1100.80;;;;;;5030478;28;20014;-61
2023/04/23 05:54:28;;;;;;;13.27;12.00;;;819.30;1100.80;;;;;;5030634;28;20032;-61
2023/04/23 05:56:54;;;;;;;14.30;12.85;;;794.50;1100.80;;;;;;5029694;28;20021;-62
2023/04/23 05:59:20;;;;;;;20.90;16.67;;;819.30;1100.80;;;;;;5029959;28;20087;-60
2023/04/23 06:01:47;;;;;;;18.40;16.15;;;845.20;1075.20;;;;;;5012268;28;20416;-60
2023/04/23 06:04:13;;;;;;;21.85;18.92;;;845.70;1049.60;;;;;;5030083;28;20061;-61
2023/04/23 06:06:39;;;;;;;18.40;16.35;;;870.60;1024.00;;;;;;5030071;28;20476;-60
2023/04/23 06:09:05;;;;;;;20.30;18.40;;;870.50;1024.00;;;;;;5030378;28;20037;-66
2023/04/23 06:11:31;;;;;;;17.08;15.40;;;871.20;998.40;;;;;;5029937;28;20029;-60
2023/04/23 06:14:01;;;;;;;16.83;15.15;;;870.70;1024.00;;;;;;5030083;28;20478;-60
2023/04/23 06:16:26;;;;;;;18.40;16.35;;;871.10;998.40;;;;;;5030093;28;20033;-61
2023/04/23 06:18:55;;;;;;;17.90;15.75;;;896.40;998.40;;;;;;5029976;28;20037;-65
2023/04/23 06:21:21;;;;;;;16.35;14.75;;;896.80;947.20;;;;;;5029535;28;20021;-61
2023/04/23 06:23:46;;;;;;;17.52;15.77;;;922.00;947.20;;;;;;5029920;28;20033;-65
2023/04/23 06:26:12;;;;;;;19.58;17.15;;;;;;;;;;5029866;28;20071;-60
2023/04/23 06:28:39;;;;;;;19.83;18.23;;;;;;;;;;5029518;28;20034;-64
2023/04/23 06:31:05;;;;;;;25.02;22.65;;;896.90;921.60;;;;;;5029309;28;20034;-63
2023/04/23 06:33:30;;;;;;;24.20;21.67;;;947.50;896.00;;;;;;5028175;28;20049;-62
2023/04/23 06:35:56;;;;;;;24.83;22.35;;;947.80;921.60;;;;;;5030166;28;20147;-62
2023/04/23 06:38:22;;;;;;;24.83;22.45;;;922.30;921.60;;;;;;5029512;28;20034;-60
2023/04/23 06:40:48;;;;;;;24.90;22.70;;;;;;;;;;5028365;28;20148;-61
2023/04/23 06:43:14;;;;;;;29.08;23.73;;;;;;;;;;5028978;28;20044;-61
2023/04/23 06:45:40;;;;;;;28.52;25.88;;;921.70;972.80;;;;;;5029594;28;20022;-64
2023/04/23 06:48:06;;;;;;;27.20;24.73;;;;;;;;;;5029547;28;20028;-62
2023/04/23 06:50:32;;;;;;;27.27;24.58;;;948.10;896.00;;;;;;5029345;28;20472;-60
2023/04/23 06:52:58;;;;;;;28.25;25.38;;;973.10;921.60;;;;;;5029273;28;20025;-65
2023/04/23 06:55:25;;;;;;;26.88;24.38;;;922.00;947.20;;;;;;5029966;28;20439;-61
2023/04/23 06:57:54;;;;;;;25.63;23.35;;;921.80;947.20;;;;;;5028455;28;20025;-61
2023/04/23 07:00:21;;;;;;;23.23;21.27;;;;;;;;;;5028816;28;20443;-59
2023/04/23 07:02:47;;;;;;;25.85;23.15;;;972.80;921.60;;;;;;5029064;28;20032;-60
2023/04/23 07:05:14;;;;;;;31.35;28.42;;;973.20;896.00;;;;;;5029038;28;20034;-65
2023/04/23 07:07:41;;;;;;;31.45;28.73;;;947.20;921.60;;;;;;5029179;28;20014;-60
2023/04/23 07:10:10;;;;;;;31.08;28.23;;;948.10;896.00;;;;;;5029003;28;20092;-67
2023/04/23 07:12:36;;;;;;;32.40;29.42;;;973.40;896.00;;;;;;5029462;28;20057;-62
2023/04/23 07:15:02;;;;;;;34.10;31.00;;;998.50;896.00;;;;;;5028920;28;20032;-66
2023/04/23 07:17:28;;;;;;;38.65;34.63;;;947.80;921.60;;;;;;5029260;28;20029;-61
2023/04/23 07:19:54;;;;;;;38.22;34.83;;;922.50;947.20;;;;;;5028710;28;20033;-60
2023/04/23 07:22:20;;;;;;;38.75;35.25;;;947.40;921.60;;;;;;5029314;28;20056;-64
2023/04/23 07:24:45;;;;;;;42.03;38.13;;;973.40;921.60;;;;;;5029014;28;20084;-60
2023/04/23 07:27:11;;;;;;;37.50;33.63;;;998.60;921.60;;;;;;5028916;28;20102;-66
2023/04/23 07:29:37;;;;;;;32.42;29.63;;;973.60;921.60;;;;;;5028864;28;20117;-60
2023/04/23 07:32:02;;;;;;;31.65;28.88;;;973.70;921.60;;;;;;5026496;28;20422;-61
2023/04/23 07:34:28;;;;;;;29.60;26.77;;;973.50;921.60;;;;;;5016706;28;20042;-60
2023/04/23 07:36:55;;;;;;;27.75;25.05;;;999.30;896.00;;;;;;5014956;28;20101;-60
2023/04/23 07:39:21;;;;;;;24.55;22.40;;;973.10;921.60;;;;;;5016384;28;20073;-67
2023/04/23 07:41:47;;;;;;;27.10;24.40;;;973.60;921.60;;;;;;5027862;28;20057;-65
2023/04/23 07:44:12;;;;;;;24.45;22.13;;;973.40;921.60;;;;;;5028606;28;20018;-68
2023/04/23 07:46:38;;;;;;;24.20;22.08;;;973.40;921.60;;;;;;5028668;28;20491;-61
2023/04/23 07:49:04;;;;;;;24.67;22.58;;;973.70;896.00;;;;;;5028396;28;20487;-62
2023/04/23 07:51:30;;;;;;;21.27;19.48;;;947.70;947.20;;;;;;5028818;28;20022;-67
2023/04/23 07:53:57;;;;;;;22.85;20.48;;;973.20;921.60;;;;;;5029032;28;20089;-65
2023/04/23 07:56:23;;;;;;;19.05;17.23;;;947.90;947.20;;;;;;5028702;28;20014;-67
2023/04/23 07:58:49;;;;;;;21.17;19.30;;;999.20;896.00;;;;;;5028207;28;20424;-67
2023/04/23 08:01:16;;;;;;;20.08;18.38;;;973.70;921.60;;;;;;5028823;28;20077;-66
2023/04/23 08:03:42;;;;;;;21.48;19.08;;;1024.10;896.00;;;;;;5028264;28;20033;-65
2023/04/23 08:06:11;;;;;;;19.05;17.25;;;998.60;921.60;;;;;;5028779;28;20022;-67
2023/04/23 08:08:37;;;;;;;20.98;17.05;;;973.50;921.60;;;;;;5020699;28;20103;-66
2023/04/23 08:11:04;;;;;;;18.92;16.13;;;998.60;921.60;;;;;;5028261;28;20060;-66
2023/04/23 08:13:30;;;;;;;20.60;18.58;;;973.30;921.60;;;;;;5027383;28;20064;-68
2023/04/23 08:15:55;;;;;;;18.10;16.35;;;999.30;896.00;;;;;;5028469;28;20057;-66
2023/04/23 08:18:21;;;;;;;39.58;36.22;;;1049.80;870.40;;;;;;5027618;28;20104;-66
2023/04/23 08:20:48;;;;;;;18.50;16.58;;;998.50;947.20;;;;;;5027547;28;20089;-66
2023/04/23 08:23:14;;;;;;;16.50;15.05;;;998.80;896.00;;;;;;5030449;28;20041;-65
2023/04/23 08:25:40;;;;;;;16.42;14.93;;;973.70;896.00;;;;;;5029841;28;20037;-65
2023/04/23 08:28:05;;;;;;;19.35;17.52;;;947.90;896.00;;;;;;5028882;28;20384;-68
2023/04/23 08:30:31;;;;;;;14.73;13.30;;;947.30;947.20;;;;;;5030070;28;20042;-68
2023/04/23 08:32:57;;;;;;;13.82;12.73;;;;;;;;;;5030322;28;20035;-67
2023/04/23 08:35:23;;;;;;;15.02;13.73;;;947.30;921.60;;;;;;5030025;28;20025;-65
2023/04/23 08:37:49;;;;;;;14.40;12.90;;;870.50;998.40;;;;;;5030245;28;20025;-66
2023/04/23 08:40:16;;;;;;;12.82;11.50;;;768.40;1126.40;;;;;;5030278;28;20532;-65
2023/04/23 08:42:47;;;;;;;11.57;10.13;;;768.30;1152.00;;;;;;5029762;28;20053;-67
2023/04/23 08:45:13;;;;;;;16.45;9.80;;;717.40;1177.60;;;;;;5029099;28;20033;-64
2023/04/23 08:47:43;;;;;;;11.85;9.15;;;716.80;1152.00;;;;;;5029670;28;20025;-64
2023/04/23 08:50:16;;;;;;;14.50;9.30;;;692.00;1126.40;;;;;;5027413;28;20131;-64
2023/04/23 08:52:46;;;;;;;;;;;691.80;1152.00;;;;;;5025470;28;20481;-63
2023/04/23 08:55:13;;;;;;;10.65;8.30;;;691.80;1152.00;;;;;;5025424;28;19905;-62
2023/04/23 08:57:40;;;;;;;10.90;8.80;;;691.60;1152.00;;;;;;5020284;28;20519;-63
2023/04/23 09:00:10;;;;;;;11.68;10.18;;;691.70;1100.80;;;;;;5028120;28;20507;-65
2023/04/23 09:02:41;;;;;;;10.90;8.00;;;691.20;1126.40;;;;;;5023584;28;20041;-62
2023/04/23 09:05:07;;;;;;;10.23;7.78;;;666.50;1126.40;;;;;;5026527;28;20562;-63
2023/04/23 09:07:34;;;;;;;12.02;7.97;;;691.30;1152.00;;;;;;5023040;28;20040;-62
2023/04/23 09:10:01;;;;;;;9.52;7.57;;;665.70;1177.60;;;;;;5020471;28;20392;-64
2023/04/23 09:12:26;;;;;;;10.27;7.25;;;665.90;1152.00;;;;;;5024443;28;20040;-64
2023/04/23 09:14:52;;;;;;;10.60;6.97;;;665.80;1152.00;;;;;;5018615;28;20025;-64
2023/04/23 09:17:19;;;;;;;8.65;7.75;;;665.90;1152.00;;;;;;5026501;28;20026;-66
2023/04/23 09:19:45;;;;;;;10.75;6.85;;;666.10;1126.40;;;;;;5026652;28;20025;-64
2023/04/23 09:22:11;;;;;;;9.75;6.32;;;666.00;1126.40;;;;;;5024644;28;20072;-62
2023/04/23 09:24:41;;;;;;;8.70;7.75;;;665.60;1126.40;;;;;;5026616;28;20039;-63
2023/04/23 09:27:06;;;;;;;10.38;7.45;;;665.60;1152.00;;;;;;5018320;28;20025;-63
2023/04/23 09:29:32;;;;;;;26.70;16.27;;;665.60;1177.60;;;;;;5024541;28;20117;-63
2023/04/23 09:32:08;;;;;;;11.57;7.70;;;665.60;1177.60;;;;;;5031044;28;20030;-64
2023/04/23 09:34:38;;;;;;;10.73;7.40;;;665.70;1152.00;;;;;;5018192;28;20025;-64
2023/04/23 09:37:09;;;;;;;8.95;7.65;;;665.60;1177.60;;;;;;5031009;28;20024;-63
2023/04/23 09:39:35;;;;;;;9.90;7.90;;;666.00;1254.40;;;;;;5030631;28;20029;-64
2023/04/23 09:42:04;;;;;;;11.82;7.57;;;665.90;1254.40;;;;;;5030611;28;20079;-63
2023/04/23 09:44:34;;;;;;;7.53;6.70;;;665.80;1152.00;;;;;;5030232;28;20129;-64
2023/04/23 09:47:10;;;;;;;9.98;7.32;;;665.60;1177.60;;;;;;5030542;28;20079;-63
2023/04/23 09:49:49;;;;;;;9.63;6.95;;;665.70;1254.40;;;;;;5030614;28;20149;-63
2023/04/23 09:52:15;;;;;;;8.18;6.40;;;640.20;1152.00;;;;;;5030631;28;20165;-64
2023/04/23 09:54:42;;;;;;;14.90;7.75;;;615.20;1177.60;;;;;;5030458;28;20021;-64
2023/04/23 09:57:08;;;;;;;11.32;6.53;;;640.20;1228.80;;;;;;5030421;28;20529;-65
2023/04/23 09:59:37;;;;;;;9.35;7.20;;;615.30;1228.80;;;;;;5029873;28;20053;-64
2023/04/23 10:02:05;;;;;;;11.75;7.22;;;614.80;1228.80;;;;;;5030362;28;20502;-63
2023/04/23 10:04:33;;;;;;;10.80;6.80;;;614.80;1254.40;;;;;;5030022;28;20034;-63
2023/04/23 10:07:00;;;;;;;9.60;6.00;;;615.20;1228.80;;;;;;5029931;28;20444;-63
2023/04/23 10:09:27;;;;;;;15.88;6.20;;;640.00;1228.80;;;;;;5030233;28;20037;-65
2023/04/23 10:11:55;;;;;;;8.70;6.93;;;640.20;1177.60;;;;;;5029981;28;20018;-64
2023/04/23 10:14:22;;;;;;;10.68;6.72;;;615.20;1228.80;;;;;;5029653;28;20112;-63
2023/04/23 10:16:50;;;;;;;12.05;7.25;;;640.00;1203.20;;;;;;5030224;28;20026;-64
2023/04/23 10:19:22;;;;;;;14.13;7.80;;;640.30;1203.20;;;;;;5030143;28;20120;-65
2023/04/23 10:21:59;;;;;;;9.75;7.50;;;640.40;1228.80;;;;;;5030059;28;20109;-66
2023/04/23 10:24:29;;;;;;;9.48;6.93;;;640.60;1203.20;;;;;;5028996;28;20026;-64
2023/04/23 10:27:01;;;;;;;8.18;6.00;;;640.60;1228.80;;;;;;5029703;28;20376;-65
2023/04/23 10:29:31;;;;;;;9.52;8.10;;;640.60;1228.80;;;;;;5029305;28;20053;-64
2023/04/23 10:31:59;;;;;;;7.90;6.45;;;640.70;1254.40;;;;;;5029332;28;20057;-63
2023/04/23 10:34:26;;;;;;;10.30;6.85;;;640.10;1203.20;;;;;;5029488;28;20112;-63
2023/04/23 10:36:53;;;;;;;11.38;7.03;;;640.40;1177.60;;;;;;5011624;28;20022;-65
2023/04/23 10:39:33;;;;;;;11.57;7.40;;;640.10;1177.60;;;;;;5029109;28;20108;-64
2023/04/23 10:42:00;;;;;;;9.70;6.63;;;640.10;1203.20;;;;;;5029213;28;20021;-63
2023/04/23 10:44:36;;;;;;;8.15;6.97;;;640.40;1177.60;;;;;;5028938;28;20067;-63
2023/04/23 10:47:03;;;;;;;9.57;6.75;;;640.70;1177.60;;;;;;5028716;28;20028;-64
2023/04/23 10:49:33;;;;;;;8.40;5.75;;;640.90;1152.00;;;;;;5028984;28;20033;-64
2023/04/23 10:51:59;;;;;;;6.28;4.53;;;665.70;1203.20;;;;;;5029188;28;20017;-63
2023/04/23 10:54:31;;;;;;;7.75;5.18;;;665.90;1203.20;;;;;;5029376;28;20057;-64
2023/04/23 10:57:03;;;;;;;7.00;5.43;;;665.90;1203.20;;;;;;5029208;28;20028;-64
2023/04/23 10:59:35;;;;;;;8.57;6.30;;;665.90;1177.60;;;;;;5028204;28;20045;-63
2023/04/23 11:02:13;;;;;;;6.60;5.65;;;665.70;1203.20;;;;;;5029129;28;20029;-63
2023/04/23 11:04:45;;;;;;;8.80;7.32;;;640.90;1228.80;;;;;;5028955;28;20029;-65
2023/04/23 11:07:12;;;;;;;11.37;6.50;;;640.30;1228.80;;;;;;5029436;28;20014;-67
2023/04/23 11:09:39;;;;;;;6.93;6.22;;;640.50;1254.40;;;;;;5029054;28;20029;-65
2023/04/23 11:12:10;;;;;;;19.55;12.32;;;640.90;1254.40;;;;;;5028960;28;20018;-65
2023/04/23 11:14:45;;;;;;;6.10;4.88;;;640.50;1203.20;;;;;;5027989;28;20037;-64
2023/04/23 11:17:12;;;;;;;6.80;5.05;;;640.50;1177.60;;;;;;5028321;28;20026;-67
2023/04/23 11:19:42;;;;;;;12.60;6.53;;;665.80;1228.80;;;;;;5028755;28;20458;-64
2023/04/23 11:22:19;;;;;;;9.80;5.10;;;665.90;1203.20;;;;;;5028132;28;20562;-63
2023/04/23 11:24:45;;;;;;;6.90;5.35;;;665.90;1152.00;;;;;;5028732;28;20021;-64
2023/04/23 11:27:12;;;;;;;7.22;5.85;;;640.70;1152.00;;;;;;5028379;28;20716;-67
2023/04/23 11:29:39;;;;;;;10.55;7.30;;;665.70;1203.20;;;;;;5028241;28;20415;-64
2023/04/23 11:32:12;;;;;;;8.02;5.65;;;665.70;1254.40;;;;;;5028291;28;20055;-65
2023/04/23 11:34:43;;;;;;;7.25;6.07;;;665.80;1228.80;;;;;;5028591;28;20026;-64
2023/04/23 11:37:14;;;;;;;9.45;5.65;;;665.60;1228.80;;;;;;5028474;28;20033;-63
2023/04/23 11:39:42;;;;;;;8.45;6.03;;;640.80;1203.20;;;;;;5028748;28;20033;-64
2023/04/23 11:42:13;;;;;;;8.10;5.40;;;640.40;1228.80;;;;;;5028524;28;20025;-64
2023/04/23 11:44:40;;;;;;;9.07;6.38;;;640.40;1177.60;;;;;;5010584;28;20654;-66
2023/04/23 11:47:13;;;;;;;6.60;5.13;;;640.10;1177.60;;;;;;5028415;28;20027;-65
2023/04/23 11:49:41;;;;;;;8.30;5.15;;;640.40;1203.20;;;;;;5028023;28;20511;-63
2023/04/23 11:52:08;;;;;;;9.25;5.00;;;640.20;1177.60;;;;;;5028460;28;20041;-64
2023/04/23 11:54:34;;;;;;;5.68;3.80;;;640.10;1152.00;;;;;;5027951;28;20021;-64
2023/04/23 11:57:01;;;;;;;6.13;4.25;;;615.30;1152.00;;;;;;5031531;28;20040;-66
2023/04/23 11:59:27;;;;;;;6.10;4.28;;;615.20;1152.00;;;;;;5035200;28;20100;-62
2023/04/23 12:01:58;;;;;;;7.78;4.60;;;640.00;1152.00;;;;;;5032610;28;20039;-63
2023/04/23 12:04:26;;;;;;;6.22;4.38;;;640.10;1177.60;;;;;;5035861;28;20025;-63
2023/04/23 12:06:53;;;;;;;7.18;4.82;;;640.20;1177.60;;;;;;5036457;28;20426;-63
2023/04/23 12:09:21;;;;;;;6.22;5.25;;;640.20;1152.00;;;;;;5035974;28;20544;-63